createdAt,value
2023-04-23T00:00:23.413Z,97532.41
2023-04-23T00:02:53.520Z,97545.13
2023-04-23T00:05:20.536Z,97548.50
2023-04-23T00:07:47.426Z,97545.84
2023-04-23T00:10:14.234Z,97535.47
2023-04-23T00:12:40.895Z,97544.41
2023-04-23T00:15:08.157Z,97544.56
2023-04-23T00:17:35.629Z,97528.94
2023-04-23T00:20:02.290Z,97531.09
2023-04-23T00:22:28.957Z,97523.06
2023-04-23T00:24:55.389Z,97523.41
2023-04-23T00:27:22.133Z,97523.75
2023-04-23T00:29:48.666Z,97520.44
2023-04-23T00:32:15.157Z,97512.50
2023-04-23T00:34:42.052Z,97510.25
2023-04-23T00:37:08.733Z,97499.44
2023-04-23T00:39:38.728Z,97517.81
2023-04-23T00:42:12.558Z,97500.16
2023-04-23T00:44:40.293Z,97509.19
2023-04-23T00:47:08.197Z,97509.56
2023-04-23T00:49:39.443Z,97502.78
2023-04-23T00:52:09.044Z,97497.53
2023-04-23T00:54:36.696Z,97494.25
2023-04-23T00:57:03.639Z,97496.72
2023-04-23T00:59:31.656Z,97501.97
2023-04-23T01:01:58.473Z,97501.63
2023-04-23T01:04:27.964Z,97488.47
2023-04-23T01:06:54.951Z,97494.28
2023-04-23T01:09:22.466Z,97483.56
2023-04-23T01:11:51.037Z,97489.28
2023-04-23T01:14:17.631Z,97476.97
2023-04-23T01:16:44.177Z,97488.28
2023-04-23T01:19:16.144Z,97486.72
2023-04-23T01:21:42.728Z,97478.94
2023-04-23T01:24:10.793Z,97480.75
2023-04-23T01:26:40.837Z,97469.91
2023-04-23T01:29:11.245Z,97472.53
2023-04-23T01:31:41.989Z,97484.91
2023-04-23T01:34:11.616Z,97475.66
2023-04-23T01:36:41.615Z,97471.22
2023-04-23T01:39:09.579Z,97467.63
2023-04-23T01:41:36.030Z,97472.22
2023-04-23T01:44:02.707Z,97473.19
2023-04-23T01:46:29.408Z,97464.25
2023-04-23T01:48:56.120Z,97460.31
2023-04-23T01:51:23.767Z,97457.66
2023-04-23T01:53:50.188Z,97461.66
2023-04-23T01:56:19.628Z,97453.44
2023-04-23T01:58:46.120Z,97449.44
2023-04-23T02:01:12.651Z,97433.03
2023-04-23T02:03:42.170Z,97446.97
2023-04-23T02:06:10.974Z,97432.50
2023-04-23T02:08:41.197Z,97440.34
2023-04-23T02:11:07.815Z,97434.78
2023-04-23T02:13:34.590Z,97438.53
2023-04-23T02:16:01.206Z,97421.94
2023-04-23T02:18:27.741Z,97418.41
2023-04-23T02:20:54.289Z,97432.16
2023-04-23T02:23:20.816Z,97424.97
2023-04-23T02:25:47.368Z,97435.84
2023-04-23T02:28:13.857Z,97434.72
2023-04-23T02:30:45.789Z,97434.88
2023-04-23T02:33:13.034Z,97416.09
2023-04-23T02:35:39.547Z,97426.09
2023-04-23T02:38:06.093Z,97412.94
2023-04-23T02:40:32.591Z,97418.72
2023-04-23T02:42:59.075Z,97408.66
2023-04-23T02:45:25.829Z,97412.59
2023-04-23T02:47:53.555Z,97410.69
2023-04-23T02:50:20.249Z,97395.72
2023-04-23T02:52:48.271Z,97399.06
2023-04-23T02:55:14.720Z,97396.63
2023-04-23T02:57:43.285Z,97387.41
2023-04-23T03:00:16.009Z,97399.28
2023-04-23T03:02:45.795Z,97391.91
2023-04-23T03:05:13.565Z,97392.59
2023-04-23T03:07:40.191Z,97402.09
2023-04-23T03:10:07.150Z,97387.25
2023-04-23T03:12:33.818Z,97408.00
2023-04-23T03:15:00.546Z,97386.31
2023-04-23T03:17:27.058Z,97392.06
2023-04-23T03:19:53.729Z,97407.25
2023-04-23T03:22:20.177Z,97406.75
2023-04-23T03:24:46.623Z,97403.72
2023-04-23T03:27:15.232Z,97400.28
2023-04-23T03:29:41.805Z,97397.13
2023-04-23T03:32:08.315Z,97386.09
2023-04-23T03:34:34.835Z,97390.03
2023-04-23T03:37:01.320Z,97380.44
2023-04-23T03:39:27.821Z,97378.78
2023-04-23T03:41:54.330Z,97382.94
2023-04-23T03:44:21.188Z,97353.88
2023-04-23T03:46:47.636Z,97361.72
2023-04-23T03:49:21.273Z,97355.88
2023-04-23T03:51:47.746Z,97336.16
2023-04-23T03:54:16.594Z,97342.63
2023-04-23T03:56:43.018Z,97344.78
2023-04-23T03:59:09.605Z,97337.19
2023-04-23T04:01:36.290Z,97325.19
2023-04-23T04:04:03.089Z,97329.50
2023-04-23T04:06:29.823Z,97320.28
2023-04-23T04:08:56.331Z,97325.22
2023-04-23T04:11:22.821Z,97320.81
2023-04-23T04:13:49.476Z,97312.56
2023-04-23T04:16:18.269Z,97308.94
2023-04-23T04:18:44.865Z,97294.03
2023-04-23T04:21:11.340Z,97290.91
2023-04-23T04:23:37.804Z,97308.38
2023-04-23T04:26:04.869Z,97304.34
2023-04-23T04:28:36.164Z,97304.69
2023-04-23T04:31:03.278Z,97299.63
2023-04-23T04:33:30.621Z,97302.91
2023-04-23T04:35:57.424Z,97314.97
2023-04-23T04:38:23.902Z,97307.22
2023-04-23T04:40:50.568Z,97311.41
2023-04-23T04:43:19.091Z,97314.38
2023-04-23T04:45:45.566Z,97296.75
2023-04-23T04:48:11.996Z,97289.66
2023-04-23T04:50:38.515Z,97300.00
2023-04-23T04:53:05.044Z,97293.53
2023-04-23T04:55:31.541Z,97287.75
2023-04-23T04:57:58.186Z,97284.91
2023-04-23T05:00:30.156Z,97266.13
2023-04-23T05:03:00.097Z,97249.81
2023-04-23T05:05:27.703Z,97273.69
2023-04-23T05:07:54.475Z,97278.97
2023-04-23T05:10:21.441Z,97263.16
2023-04-23T05:12:51.956Z,97252.28
2023-04-23T05:15:21.972Z,97266.06
2023-04-23T05:17:53.601Z,97260.63
2023-04-23T05:20:21.633Z,97265.00
2023-04-23T05:22:52.251Z,97269.41
2023-04-23T05:25:21.716Z,97264.69
2023-04-23T05:27:51.399Z,97254.22
2023-04-23T05:30:21.812Z,97265.03
2023-04-23T05:32:51.187Z,97246.34
2023-04-23T05:35:20.652Z,97259.09
2023-04-23T05:37:50.256Z,97266.56
2023-04-23T05:40:20.047Z,97254.59
2023-04-23T05:42:48.844Z,97256.16
2023-04-23T05:45:15.423Z,97240.75
2023-04-23T05:47:41.856Z,97242.31
2023-04-23T05:50:08.657Z,97251.63
2023-04-23T05:52:37.349Z,97237.00
2023-04-23T05:55:04.385Z,97248.53
2023-04-23T05:57:31.147Z,97256.09
2023-04-23T05:59:57.654Z,97254.03
2023-04-23T06:02:25.309Z,97250.03
2023-04-23T06:04:52.455Z,97243.81
2023-04-23T06:07:19.281Z,97259.41
2023-04-23T06:09:45.844Z,97257.88
2023-04-23T06:12:12.326Z,97236.91
2023-04-23T06:14:38.839Z,97235.53
2023-04-23T06:17:05.367Z,97232.72
2023-04-23T06:19:31.888Z,97220.38
2023-04-23T06:21:58.378Z,97223.56
2023-04-23T06:24:24.818Z,97232.06
2023-04-23T06:26:51.357Z,97216.47
2023-04-23T06:29:20.696Z,97205.75
2023-04-23T06:31:49.633Z,97204.41
2023-04-23T06:34:16.170Z,97215.28
2023-04-23T06:36:43.830Z,97211.00
2023-04-23T06:39:10.521Z,97200.19
2023-04-23T06:41:37.015Z,97191.41
2023-04-23T06:44:03.470Z,97196.28
2023-04-23T06:46:30.044Z,97184.81
2023-04-23T06:48:56.563Z,97189.50
2023-04-23T06:51:25.846Z,97186.69
2023-04-23T06:53:52.336Z,97178.22
2023-04-23T06:56:19.316Z,97160.66
2023-04-23T06:58:45.781Z,97169.81
2023-04-23T07:01:13.338Z,97176.41
2023-04-23T07:03:39.986Z,97170.59
2023-04-23T07:06:06.613Z,97184.16
2023-04-23T07:08:33.089Z,97170.69
2023-04-23T07:10:59.768Z,97166.69
2023-04-23T07:13:26.528Z,97149.19
2023-04-23T07:15:53.287Z,97156.22
2023-04-23T07:18:19.738Z,97165.50
2023-04-23T07:20:48.488Z,97153.28
2023-04-23T07:23:14.941Z,97150.91
2023-04-23T07:25:41.474Z,97135.81
2023-04-23T07:28:08.021Z,97135.22
2023-04-23T07:30:34.497Z,97148.31
2023-04-23T07:33:01.111Z,97146.06
2023-04-23T07:35:27.726Z,97144.41
2023-04-23T07:37:56.021Z,97153.59
2023-04-23T07:40:23.119Z,97165.03
2023-04-23T07:42:50.993Z,97166.03
2023-04-23T07:45:20.264Z,97162.31
2023-04-23T07:47:51.560Z,97169.25
2023-04-23T07:50:21.268Z,97166.16
2023-04-23T07:52:50.969Z,97169.59
2023-04-23T07:55:20.714Z,97143.03
2023-04-23T07:57:49.456Z,97151.59
2023-04-23T08:00:16.115Z,97144.44
2023-04-23T08:02:42.776Z,97136.91
2023-04-23T08:05:10.096Z,97148.94
2023-04-23T08:07:36.705Z,97136.31
2023-04-23T08:10:06.100Z,97125.44
2023-04-23T08:12:34.641Z,97154.63
2023-04-23T08:15:01.351Z,97146.69
2023-04-23T08:17:27.957Z,97133.13
2023-04-23T08:19:54.491Z,97135.41
2023-04-23T08:22:21.978Z,97150.13
2023-04-23T08:24:51.725Z,97159.28
2023-04-23T08:27:21.677Z,97168.31
2023-04-23T08:29:51.811Z,97152.97
2023-04-23T08:32:21.409Z,97151.94
2023-04-23T08:34:51.016Z,97159.13
2023-04-23T08:37:30.347Z,97153.22
2023-04-23T08:39:58.012Z,97153.25
2023-04-23T08:42:37.607Z,97143.44
2023-04-23T08:45:07.639Z,97137.50
2023-04-23T08:47:35.893Z,97141.41
2023-04-23T08:50:04.681Z,97148.97
2023-04-23T08:52:34.814Z,97141.91
2023-04-23T08:55:05.017Z,97146.84
2023-04-23T08:57:31.978Z,97137.88
2023-04-23T08:59:59.545Z,97134.19
2023-04-23T09:02:26.682Z,97134.81
2023-04-23T09:04:56.209Z,97127.88
2023-04-23T09:07:23.692Z,97127.44
2023-04-23T09:09:53.603Z,97136.25
2023-04-23T09:12:21.367Z,97126.00
2023-04-23T09:14:52.817Z,97138.06
2023-04-23T09:17:23.557Z,97131.75
2023-04-23T09:19:54.638Z,97127.25
2023-04-23T09:22:49.837Z,97136.84
2023-04-23T09:25:21.123Z,97141.53
2023-04-23T09:27:52.383Z,97130.03
2023-04-23T09:30:25.366Z,97125.72
2023-04-23T09:32:52.012Z,97118.94
2023-04-23T09:35:20.832Z,97129.78
2023-04-23T09:37:56.069Z,97132.44
2023-04-23T09:40:25.023Z,97135.09
2023-04-23T09:42:54.472Z,97130.75
2023-04-23T09:45:21.746Z,97123.94
2023-04-23T09:47:57.047Z,97120.78
2023-04-23T09:50:34.858Z,97117.25
2023-04-23T09:53:01.585Z,97130.53
2023-04-23T09:55:35.572Z,97128.59
2023-04-23T09:58:04.519Z,97125.56
2023-04-23T10:00:38.464Z,97113.88
2023-04-23T10:03:07.537Z,97116.03
2023-04-23T10:08:09.584Z,97096.78
2023-04-23T10:10:47.070Z,97116.88
2023-04-23T10:13:24.367Z,97112.69
2023-04-23T10:15:51.491Z,97101.75
2023-04-23T10:18:22.888Z,97097.94
2023-04-23T10:20:52.704Z,97095.50
2023-04-23T10:23:23.671Z,97079.66
2023-04-23T10:25:57.621Z,97073.72
2023-04-23T10:28:29.135Z,97083.84
2023-04-23T10:30:57.087Z,97075.47
2023-04-23T10:33:30.537Z,97088.28
2023-04-23T10:36:00.320Z,97063.16
2023-04-23T10:38:28.422Z,97051.84
2023-04-23T10:40:56.965Z,97083.28
2023-04-23T10:43:24.683Z,97079.66
2023-04-23T10:45:51.225Z,97079.91
2023-04-23T10:48:20.401Z,97057.88
2023-04-23T10:51:05.765Z,97070.69
2023-04-23T10:53:36.869Z,97075.81
2023-04-23T10:56:07.804Z,97085.25
2023-04-23T10:58:51.891Z,97083.50
2023-04-23T11:01:20.808Z,97090.28
2023-04-23T11:03:50.242Z,97077.09
2023-04-23T11:06:55.247Z,97110.25
2023-04-23T11:09:44.677Z,97102.06
2023-04-23T11:12:32.188Z,97108.69
2023-04-23T11:14:59.762Z,97104.16
2023-04-23T11:17:32.322Z,97114.88
2023-04-23T11:20:16.396Z,97127.31
2023-04-23T11:22:44.447Z,97125.91
2023-04-23T11:25:30.303Z,97137.31
2023-04-23T11:28:00.673Z,97133.41
2023-04-23T11:30:29.722Z,97130.22
2023-04-23T11:32:57.615Z,97131.72
2023-04-23T11:35:28.527Z,97137.94
2023-04-23T11:37:55.279Z,97141.81
2023-04-23T11:40:22.265Z,97143.28
2023-04-23T11:42:54.840Z,97146.22
2023-04-23T11:45:24.619Z,97166.75
2023-04-23T11:47:56.180Z,97162.25
2023-04-23T11:50:24.992Z,97170.63
2023-04-23T11:52:52.914Z,97168.38
2023-04-23T11:55:23.848Z,97165.53
2023-04-23T11:57:59.073Z,97159.78
2023-04-23T12:00:27.137Z,97162.16
2023-04-23T12:03:02.143Z,97163.22
2023-04-23T12:05:30.120Z,97169.38
2023-04-23T12:11:46.094Z,97138.94
2023-04-23T12:21:45.732Z,97154.44
2023-04-23T12:24:08.818Z,97120.91
2023-04-23T12:26:39.309Z,97136.50
2023-04-23T12:29:07.585Z,97143.34
2023-04-23T12:31:34.064Z,97149.69
2023-04-23T12:34:07.838Z,97140.69
2023-04-23T12:36:39.814Z,97156.59
2023-04-23T12:39:26.434Z,97146.78
2023-04-23T12:41:56.386Z,97164.66
2023-04-23T12:44:29.007Z,97151.75
2023-04-23T12:47:03.240Z,97160.59
2023-04-23T12:49:29.973Z,97167.75
2023-04-23T12:51:57.879Z,97153.88
2023-04-23T12:54:26.579Z,97157.03
2023-04-23T12:56:55.904Z,97162.56
2023-04-23T12:59:26.579Z,97139.44
2023-04-23T13:01:54.490Z,97156.59
2023-04-23T13:04:23.583Z,97157.47
2023-04-23T13:06:53.589Z,97161.38
2023-04-23T13:09:22.009Z,97163.38
2023-04-23T13:11:49.824Z,97161.44
2023-04-23T13:14:16.839Z,97148.16
2023-04-23T13:16:43.636Z,97163.63
2023-04-23T13:19:10.850Z,97154.09
2023-04-23T13:21:37.321Z,97142.41
2023-04-23T13:24:03.972Z,97150.72
2023-04-23T13:26:32.403Z,97159.41
2023-04-23T13:29:02.181Z,97166.81
2023-04-23T13:31:29.630Z,97177.06
2023-04-23T13:33:56.220Z,97173.63
2023-04-23T13:36:25.818Z,97192.22
2023-04-23T13:38:55.648Z,97175.22
2023-04-23T13:41:24.459Z,97179.09
2023-04-23T13:43:51.252Z,97187.84
2023-04-23T13:46:19.777Z,97201.13
2023-04-23T13:48:47.072Z,97164.34
2023-04-23T13:51:32.641Z,97165.13
2023-04-23T13:54:00.189Z,97191.44
2023-04-23T13:56:27.552Z,97176.41
2023-04-23T13:59:15.535Z,97177.41
2023-04-23T14:01:44.497Z,97184.09
2023-04-23T14:04:13.032Z,97180.16
2023-04-23T14:06:40.106Z,97148.06
2023-04-23T14:09:06.666Z,97193.94
2023-04-23T14:11:33.503Z,97200.81
2023-04-23T14:14:01.222Z,97158.75
2023-04-23T14:16:27.874Z,97182.31
2023-04-23T14:18:55.004Z,97174.53
2023-04-23T14:21:24.517Z,97181.59
2023-04-23T14:24:06.710Z,97175.53
2023-04-23T14:26:47.946Z,97166.03
2023-04-23T14:29:35.533Z,97183.69
2023-04-23T14:32:02.265Z,97165.97
2023-04-23T14:34:28.792Z,97143.19
2023-04-23T14:36:58.003Z,97131.19
2023-04-23T14:39:29.330Z,97117.03
2023-04-23T14:41:56.418Z,97119.59
2023-04-23T14:44:31.881Z,97114.34
2023-04-23T14:46:59.112Z,97103.84
2023-04-23T14:49:25.951Z,97104.44
2023-04-23T14:51:55.146Z,97109.88
2023-04-23T14:54:22.810Z,97103.09
2023-04-23T14:56:55.172Z,97099.28
2023-04-23T14:59:21.904Z,97108.03
2023-04-23T15:01:48.623Z,97108.69
2023-04-23T15:04:16.960Z,97089.34
2023-04-23T15:06:43.733Z,97100.50
2023-04-23T15:09:10.248Z,97100.31
2023-04-23T15:11:38.721Z,97074.63
2023-04-23T15:14:05.220Z,97091.34
2023-04-23T15:19:06.669Z,97098.88
2023-04-23T15:21:33.176Z,97095.66
2023-04-23T15:23:59.757Z,97102.75
2023-04-23T15:26:30.268Z,97101.91
2023-04-23T15:28:56.814Z,97119.88
2023-04-23T15:31:23.532Z,97114.53
2023-04-23T15:33:50.582Z,97120.69
2023-04-23T15:36:17.132Z,97131.38
2023-04-23T15:38:43.609Z,97129.78
2023-04-23T15:41:11.437Z,97109.16
2023-04-23T15:43:37.970Z,97098.13
2023-04-23T15:46:04.609Z,97109.06
2023-04-23T15:48:31.096Z,97108.22
2023-04-23T15:50:57.746Z,97125.19
2023-04-23T15:53:26.254Z,97108.88
2023-04-23T15:55:52.702Z,97109.81
2023-04-23T15:58:19.815Z,97112.72
2023-04-23T16:00:46.986Z,97121.25
2023-04-23T16:03:15.080Z,97126.91
2023-04-23T16:05:42.277Z,97116.38
2023-04-23T16:08:09.177Z,97141.69
2023-04-23T16:10:38.208Z,97134.31
2023-04-23T16:13:06.116Z,97128.66
2023-04-23T16:15:32.635Z,97140.28
2023-04-23T16:18:00.249Z,97134.03
2023-04-23T16:20:29.847Z,97134.91
2023-04-23T16:22:59.054Z,97140.78
2023-04-23T16:25:29.264Z,97136.75
2023-04-23T16:27:57.119Z,97153.16
2023-04-23T16:30:26.291Z,97128.63
2023-04-23T16:32:52.852Z,97148.47
2023-04-23T16:35:19.417Z,97155.78
2023-04-23T16:37:45.945Z,97147.06
2023-04-23T16:40:15.135Z,97158.09
2023-04-23T16:42:42.799Z,97157.97
2023-04-23T16:45:09.657Z,97150.47
2023-04-23T16:47:36.231Z,97140.84
2023-04-23T16:50:10.175Z,97138.47
2023-04-23T16:52:36.745Z,97156.72
2023-04-23T16:55:03.393Z,97165.47
2023-04-23T16:57:32.999Z,97151.97
2023-04-23T16:59:59.509Z,97169.97
2023-04-23T17:02:26.565Z,97161.59
2023-04-23T17:04:53.221Z,97178.88
2023-04-23T17:07:19.918Z,97175.34
2023-04-23T17:09:46.398Z,97176.09
2023-04-23T17:12:12.868Z,97169.03
2023-04-23T17:14:39.502Z,97164.28
2023-04-23T17:17:06.132Z,97136.63
2023-04-23T17:19:33.040Z,97175.78
2023-04-23T17:22:00.164Z,97170.22
2023-04-23T17:24:29.736Z,97145.81
2023-04-23T17:26:59.481Z,97176.22
2023-04-23T17:31:14.021Z,97175.94
2023-04-23T17:32:40.009Z,97183.84
2023-04-23T17:35:10.593Z,97174.22
2023-04-23T17:37:37.407Z,97174.34
2023-04-23T17:40:05.792Z,97168.81
2023-04-23T17:42:32.285Z,97148.22
2023-04-23T17:44:58.760Z,97158.69
2023-04-23T17:47:27.878Z,97161.38
2023-04-23T17:49:58.951Z,97156.72
2023-04-23T17:52:27.968Z,97132.19
2023-04-23T17:54:55.962Z,97172.09
2023-04-23T17:57:22.483Z,97167.06
2023-04-23T17:59:48.958Z,97170.38
2023-04-23T18:02:16.149Z,97172.03
2023-04-23T18:04:42.754Z,97179.16
2023-04-23T18:07:09.219Z,97187.00
2023-04-23T18:09:36.004Z,97181.69
2023-04-23T18:12:04.004Z,97194.41
2023-04-23T18:14:30.604Z,97184.53
2023-04-23T18:16:58.276Z,97186.78
2023-04-23T18:19:30.918Z,97188.84
2023-04-23T18:22:02.098Z,97200.28
2023-04-23T18:24:28.789Z,97206.63
2023-04-23T18:26:59.124Z,97203.75
2023-04-23T18:29:31.495Z,97203.16
2023-04-23T18:31:58.296Z,97209.06
2023-04-23T18:34:30.760Z,97201.06
2023-04-23T18:37:03.136Z,97207.22
2023-04-23T18:39:32.315Z,97210.06
2023-04-23T18:41:59.332Z,97216.38
2023-04-23T18:44:29.761Z,97213.53
2023-04-23T18:46:59.465Z,97215.97
2023-04-23T18:49:46.307Z,97225.41
2023-04-23T18:52:13.024Z,97222.91
2023-04-23T18:54:40.930Z,97227.78
2023-04-23T18:57:28.741Z,97237.63
2023-04-23T18:59:58.197Z,97233.69
2023-04-23T19:02:35.100Z,97249.44
2023-04-23T19:05:02.214Z,97257.78
2023-04-23T19:07:28.803Z,97258.97
2023-04-23T19:09:58.732Z,97264.25
2023-04-23T19:15:57.751Z,97228.22
2023-04-23T19:18:26.722Z,97275.09
2023-04-23T19:20:53.356Z,97285.34
2023-04-23T19:23:20.505Z,97280.78
2023-04-23T19:25:47.880Z,97289.75
2023-04-23T19:28:14.641Z,97287.28
2023-04-23T19:30:41.388Z,97305.06
2023-04-23T19:33:08.139Z,97289.69
2023-04-23T19:35:34.697Z,97311.41
2023-04-23T19:38:01.170Z,97309.28
2023-04-23T19:40:27.893Z,97317.97
2023-04-23T19:42:57.417Z,97316.81
2023-04-23T19:45:26.095Z,97336.06
2023-04-23T19:47:54.645Z,97336.00
2023-04-23T19:50:21.886Z,97340.50
2023-04-23T19:52:48.702Z,97346.16
2023-04-23T19:55:15.699Z,97349.03
2023-04-23T19:57:42.193Z,97361.28
2023-04-23T20:00:13.528Z,97367.38
2023-04-23T20:02:40.777Z,97366.34
2023-04-23T20:05:10.321Z,97364.09
2023-04-23T20:07:40.037Z,97368.97
2023-04-23T20:10:07.559Z,97374.66
2023-04-23T20:12:35.014Z,97368.34
2023-04-23T20:15:02.131Z,97372.78
2023-04-23T20:17:30.098Z,97376.00
2023-04-23T20:20:01.771Z,97378.63
2023-04-23T20:22:29.449Z,97376.16
2023-04-23T20:24:57.771Z,97383.66
2023-04-23T20:27:28.169Z,97382.63
2023-04-23T20:29:56.460Z,97385.63
2023-04-23T20:32:23.062Z,97383.66
2023-04-23T20:34:49.653Z,97383.41
2023-04-23T20:37:21.671Z,97391.19
2023-04-23T20:39:49.288Z,97387.28
2023-04-23T20:42:15.805Z,97388.31
2023-04-23T20:44:45.430Z,97395.56
2023-04-23T20:47:11.977Z,97393.63
2023-04-23T20:49:39.965Z,97404.75
2023-04-23T20:52:06.988Z,97412.06
2023-04-23T20:54:34.756Z,97409.66
2023-04-23T20:57:02.304Z,97409.53
2023-04-23T20:59:31.408Z,97410.69
2023-04-23T21:01:58.701Z,97413.34
2023-04-23T21:04:25.383Z,97410.19
2023-04-23T21:06:51.971Z,97407.69
2023-04-23T21:09:18.466Z,97411.22
2023-04-23T21:11:44.938Z,97412.47
2023-04-23T21:14:11.454Z,97394.91
2023-04-23T21:16:38.236Z,97400.66
2023-04-23T21:19:05.822Z,97398.81
2023-04-23T21:21:32.437Z,97393.47
2023-04-23T21:24:02.057Z,97385.75
2023-04-23T21:26:31.870Z,97396.16
2023-04-23T21:29:01.664Z,97384.16
2023-04-23T21:31:48.494Z,97381.53
2023-04-23T21:34:15.372Z,97381.66
2023-04-23T21:36:44.505Z,97379.50
2023-04-23T21:39:13.008Z,97382.97
2023-04-23T21:41:39.954Z,97383.28
2023-04-23T21:44:06.633Z,97376.06
2023-04-23T21:46:33.330Z,97377.53
2023-04-23T21:49:02.938Z,97363.59
2023-04-23T21:51:37.043Z,97369.47
2023-04-23T21:54:05.496Z,97372.75
2023-04-23T21:56:32.257Z,97371.66
2023-04-23T21:58:59.635Z,97386.19
2023-04-23T22:01:26.174Z,97365.25
2023-04-23T22:03:52.920Z,97361.78
2023-04-23T22:06:19.902Z,97359.78
2023-04-23T22:08:46.602Z,97376.13
2023-04-23T22:11:14.441Z,97378.19
2023-04-23T22:13:41.001Z,97382.19
2023-04-23T22:16:24.613Z,97381.69
2023-04-23T22:18:54.907Z,97375.19
2023-04-23T22:21:21.460Z,97370.13
2023-04-23T22:23:48.056Z,97367.44
2023-04-23T22:26:14.492Z,97379.16
2023-04-23T22:28:43.397Z,97375.94
2023-04-23T22:31:09.978Z,97368.16
2023-04-23T22:33:36.727Z,97384.53
2023-04-23T22:36:03.745Z,97366.50
2023-04-23T22:38:30.250Z,97380.88
2023-04-23T22:40:56.759Z,97382.09
2023-04-23T22:43:23.202Z,97379.94
2023-04-23T22:45:49.738Z,97371.91
2023-04-23T22:48:16.300Z,97373.16
2023-04-23T22:50:43.182Z,97365.81
2023-04-23T22:53:09.676Z,97369.75
2023-04-23T22:55:36.207Z,97379.88
2023-04-23T22:58:04.621Z,97378.34
2023-04-23T23:00:31.135Z,97381.19
2023-04-23T23:02:57.718Z,97378.09
2023-04-23T23:05:24.261Z,97383.34
2023-04-23T23:07:51.613Z,97377.66
2023-04-23T23:10:21.505Z,97385.50
2023-04-23T23:12:49.384Z,97374.25
2023-04-23T23:15:15.897Z,97372.53
2023-04-23T23:17:42.472Z,97383.97
2023-04-23T23:20:09.632Z,97381.66
2023-04-23T23:22:39.193Z,97376.50
2023-04-23T23:25:07.258Z,97372.25
2023-04-23T23:27:35.154Z,97376.84
2023-04-23T23:30:08.823Z,97381.81
2023-04-23T23:32:36.679Z,97371.66
2023-04-23T23:35:06.033Z,97370.81
2023-04-23T23:37:32.630Z,97374.56
2023-04-23T23:39:59.100Z,97371.47
2023-04-23T23:42:25.730Z,97380.31
2023-04-23T23:44:52.210Z,97372.91
2023-04-23T23:47:18.914Z,97367.06
2023-04-23T23:49:45.508Z,97356.50
2023-04-23T23:52:12.060Z,97358.44
2023-04-23T23:54:38.534Z,97347.53
2023-04-23T23:57:05.855Z,97368.94
2023-04-23T23:59:32.710Z,97370.41
